createdAt,value
2022-10-03T00:02:29.040Z,6.00
2022-10-03T00:05:32.884Z,4.00
2022-10-03T00:08:19.616Z,5.00
2022-10-03T00:11:27.602Z,3.50
2022-10-03T00:13:58.747Z,4.00
2022-10-03T00:16:55.593Z,4.50
2022-10-03T00:19:48.789Z,4.33
2022-10-03T00:22:29.014Z,3.00
2022-10-03T00:26:01.905Z,5.00
2022-10-03T00:28:57.219Z,4.75
2022-10-03T00:31:43.174Z,3.33
2022-10-03T00:34:45.074Z,3.00
2022-10-03T00:37:18.980Z,4.00
2022-10-03T00:40:12.145Z,3.67
2022-10-03T00:42:52.727Z,3.00
2022-10-03T00:45:42.515Z,3.00
2022-10-03T00:48:25.310Z,2.00
2022-10-03T00:51:17.783Z,4.00
2022-10-03T00:54:16.852Z,2.00
2022-10-03T00:57:03.867Z,3.00
2022-10-03T00:59:48.214Z,2.00
2022-10-03T01:02:31.413Z,2.75
2022-10-03T01:05:38.539Z,3.67
2022-10-03T01:08:10.193Z,3.50
2022-10-03T01:10:51.267Z,2.50
2022-10-03T01:13:50.394Z,3.00
2022-10-03T01:16:55.733Z,4.00
2022-10-03T01:19:48.352Z,2.75
2022-10-03T01:23:02.207Z,4.00
2022-10-03T01:25:33.557Z,3.00
2022-10-03T01:28:36.340Z,4.00
2022-10-03T01:31:10.447Z,3.50
2022-10-03T01:33:44.786Z,3.00
2022-10-03T01:36:12.850Z,2.50
2022-10-03T01:38:51.979Z,4.00
2022-10-03T01:41:45.001Z,3.50
2022-10-03T01:44:24.781Z,3.00
2022-10-03T01:46:59.614Z,2.25
2022-10-03T01:50:06.494Z,4.00
2022-10-03T01:52:45.972Z,3.00
2022-10-03T01:55:46.505Z,3.25
2022-10-03T01:58:27.343Z,4.00
2022-10-03T02:01:07.827Z,3.00
2022-10-03T02:04:02.096Z,3.25
2022-10-03T02:06:33.033Z,2.00
2022-10-03T02:09:29.568Z,2.25
2022-10-03T02:12:05.015Z,2.50
2022-10-03T02:14:56.433Z,3.00
2022-10-03T02:17:30.997Z,3.00
2022-10-03T02:20:25.194Z,3.00
2022-10-03T02:22:55.784Z,4.00
2022-10-03T02:26:04.395Z,2.00
2022-10-03T02:28:57.147Z,2.00
2022-10-03T02:31:32.687Z,2.00
2022-10-03T02:34:19.405Z,3.00
2022-10-03T02:37:24.953Z,3.00
2022-10-03T02:39:53.743Z,3.25
2022-10-03T02:42:59.397Z,3.50
2022-10-03T02:45:41.567Z,3.00
2022-10-03T02:48:36.500Z,3.00
2022-10-03T02:51:24.848Z,3.00
2022-10-03T02:53:58.860Z,3.00
2022-10-03T02:56:54.112Z,3.00
2022-10-03T02:59:31.377Z,2.00
2022-10-03T03:02:30.208Z,3.25
2022-10-03T03:05:23.106Z,3.25
2022-10-03T03:08:13.194Z,2.00
2022-10-03T03:11:31.553Z,0.00
2022-10-03T03:14:24.600Z,4.00
2022-10-03T03:17:10.353Z,5.00
2022-10-03T03:19:56.316Z,3.00
2022-10-03T03:22:53.743Z,3.00
2022-10-03T03:25:42.911Z,2.25
2022-10-03T03:28:38.834Z,3.00
2022-10-03T03:31:16.842Z,3.00
2022-10-03T03:34:07.850Z,2.67
2022-10-03T03:37:01.216Z,3.00
2022-10-03T03:39:57.035Z,3.50
2022-10-03T03:42:48.282Z,4.00
2022-10-03T03:45:23.684Z,3.50
2022-10-03T03:48:14.521Z,3.50
2022-10-03T03:51:19.647Z,4.00
2022-10-03T03:54:19.869Z,3.00
2022-10-03T03:57:06.170Z,3.50
2022-10-03T04:00:04.449Z,3.25
2022-10-03T04:02:58.939Z,3.00
2022-10-03T04:05:58.243Z,2.00
2022-10-03T04:09:00.417Z,2.50
2022-10-03T04:11:40.237Z,3.00
2022-10-03T04:14:20.525Z,3.00
2022-10-03T04:17:24.231Z,3.75
2022-10-03T04:19:58.243Z,3.50
2022-10-03T04:22:35.371Z,3.00
2022-10-03T04:25:21.514Z,2.33
2022-10-03T04:28:08.385Z,2.75
2022-10-03T04:31:01.189Z,3.00
2022-10-03T04:33:42.207Z,6.75
2022-10-03T04:36:51.913Z,1.33
2022-10-03T04:39:26.845Z,2.33
2022-10-03T04:42:04.389Z,3.00
2022-10-03T04:44:58.115Z,3.75
2022-10-03T04:47:43.498Z,2.00
2022-10-03T04:50:24.158Z,3.00
2022-10-03T04:53:21.828Z,4.00
2022-10-03T04:56:13.242Z,4.00
2022-10-03T04:58:48.417Z,3.75
2022-10-03T05:01:23.341Z,3.25
2022-10-03T05:04:02.651Z,2.75
2022-10-03T05:06:49.098Z,4.00
2022-10-03T05:09:45.955Z,3.00
2022-10-03T05:12:40.186Z,3.00
2022-10-03T05:15:11.128Z,3.00
2022-10-03T05:17:59.066Z,1.00
2022-10-03T05:20:53.056Z,3.00
2022-10-03T05:23:53.679Z,3.00
2022-10-03T05:26:46.561Z,3.00
2022-10-03T05:29:39.386Z,2.25
2022-10-03T05:32:33.056Z,3.00
2022-10-03T05:35:18.539Z,4.00
2022-10-03T05:38:12.828Z,2.50
2022-10-03T05:40:44.496Z,3.00
2022-10-03T05:43:36.615Z,3.00
2022-10-03T05:46:30.197Z,2.00
2022-10-03T05:49:13.416Z,3.00
2022-10-03T05:51:50.497Z,3.50
2022-10-03T05:54:27.483Z,2.00
2022-10-03T05:57:14.805Z,3.00
2022-10-03T05:59:48.916Z,2.75
2022-10-03T06:02:26.270Z,3.00
2022-10-03T06:05:13.634Z,2.00
2022-10-03T06:07:58.706Z,1.33
2022-10-03T06:10:34.105Z,2.00
2022-10-03T06:13:08.164Z,2.33
2022-10-03T06:15:37.682Z,2.00
2022-10-03T06:18:08.605Z,3.00
2022-10-03T06:20:51.836Z,2.00
2022-10-03T06:23:38.541Z,2.00
2022-10-03T06:26:22.212Z,2.67
2022-10-03T06:29:08.783Z,1.50
2022-10-03T06:31:59.931Z,1.25
2022-10-03T06:35:05.476Z,2.75
2022-10-03T06:38:02.807Z,2.00
2022-10-03T06:40:49.723Z,2.67
2022-10-03T06:43:51.998Z,1.25
2022-10-03T06:46:37.142Z,3.50
2022-10-03T06:49:27.052Z,2.25
2022-10-03T06:52:08.846Z,1.67
2022-10-03T06:54:37.225Z,2.50
2022-10-03T06:57:40.126Z,1.25
2022-10-03T07:00:18.631Z,2.67
2022-10-03T07:03:05.545Z,2.00
2022-10-03T07:06:02.907Z,1.75
2022-10-03T07:08:44.082Z,3.33
2022-10-03T07:11:47.176Z,1.75
2022-10-03T07:14:27.331Z,2.33
2022-10-03T07:17:23.376Z,2.50
2022-10-03T07:19:57.677Z,1.25
2022-10-03T07:22:49.812Z,1.75
2022-10-03T07:25:33.450Z,3.00
2022-10-03T07:28:34.379Z,2.25
2022-10-03T07:31:34.180Z,2.00
2022-10-03T07:34:23.786Z,1.00
2022-10-03T07:37:39.788Z,2.00
2022-10-03T07:40:23.449Z,1.75
2022-10-03T07:43:17.858Z,1.50
2022-10-03T07:46:01.430Z,1.33
2022-10-03T07:48:35.460Z,3.00
2022-10-03T07:51:13.470Z,1.75
2022-10-03T07:54:02.634Z,1.25
2022-10-03T07:56:52.616Z,1.67
2022-10-03T07:59:45.574Z,2.00
2022-10-03T08:02:35.127Z,2.75
2022-10-03T08:05:17.555Z,2.00
2022-10-03T08:08:22.393Z,2.25
2022-10-03T08:11:16.787Z,2.00
2022-10-03T08:14:03.697Z,1.50
2022-10-03T08:17:08.840Z,1.00
2022-10-03T08:20:01.691Z,2.33
2022-10-03T08:23:08.168Z,2.00
2022-10-03T08:25:57.635Z,1.00
2022-10-03T08:28:25.977Z,1.75
2022-10-03T08:31:16.158Z,2.00
2022-10-03T08:34:08.990Z,2.00
2022-10-03T08:36:55.713Z,1.00
2022-10-03T08:39:39.002Z,2.00
2022-10-03T08:42:26.114Z,2.33
2022-10-03T08:45:18.454Z,1.75
2022-10-03T08:47:52.775Z,1.00
2022-10-03T08:51:05.800Z,2.75
2022-10-03T08:53:53.739Z,1.33
2022-10-03T08:56:28.307Z,3.00
2022-10-03T08:59:14.897Z,2.00
2022-10-03T09:01:46.350Z,2.00
2022-10-03T09:04:39.786Z,1.50
2022-10-03T09:07:24.557Z,2.50
2022-10-03T09:10:26.926Z,2.00
2022-10-03T09:13:21.009Z,1.75
2022-10-03T09:16:03.957Z,2.50
2022-10-03T09:18:51.561Z,2.33
2022-10-03T09:21:40.830Z,2.75
2022-10-03T09:24:36.758Z,1.25
2022-10-03T09:27:18.922Z,1.00
2022-10-03T09:30:25.230Z,1.75
2022-10-03T09:33:11.626Z,1.00
2022-10-03T09:36:04.685Z,2.25
2022-10-03T09:39:12.183Z,1.75
2022-10-03T09:42:15.786Z,1.25
2022-10-03T09:44:56.456Z,2.00
2022-10-03T09:48:05.900Z,1.75
2022-10-03T09:50:55.795Z,2.00
2022-10-03T09:53:52.116Z,2.25
2022-10-03T09:56:26.228Z,2.00
2022-10-03T09:59:13.655Z,2.75
2022-10-03T10:01:58.429Z,4.00
2022-10-03T10:04:54.901Z,5.00
2022-10-03T10:08:01.738Z,5.50
2022-10-03T10:11:00.837Z,5.50
2022-10-03T10:14:10.477Z,3.00
2022-10-03T10:17:09.688Z,3.50
2022-10-03T10:20:10.459Z,4.33
2022-10-03T10:23:04.818Z,4.67
2022-10-03T10:25:48.453Z,4.25
2022-10-03T10:28:54.622Z,2.33
2022-10-03T10:31:55.163Z,3.25
2022-10-03T10:34:41.553Z,3.33
2022-10-03T10:37:55.212Z,4.00
2022-10-03T10:40:59.781Z,4.33
2022-10-03T10:43:47.151Z,2.25
2022-10-03T10:46:24.695Z,2.67
2022-10-03T10:49:27.429Z,0.00
2022-10-03T10:52:12.229Z,4.00
2022-10-03T10:55:11.493Z,3.25
2022-10-03T10:58:17.249Z,3.67
2022-10-03T11:00:55.074Z,4.00
2022-10-03T11:04:00.913Z,3.67
2022-10-03T11:07:00.832Z,3.33
2022-10-03T11:09:42.939Z,3.00
2022-10-03T11:12:48.185Z,3.67
2022-10-03T11:15:58.875Z,2.00
2022-10-03T11:18:51.756Z,2.50
2022-10-03T11:21:26.158Z,2.00
2022-10-03T11:24:12.012Z,2.00
2022-10-03T11:26:43.722Z,2.25
2022-10-03T11:29:43.379Z,2.75
2022-10-03T11:32:40.121Z,2.00
2022-10-03T11:35:21.117Z,2.00
2022-10-03T11:38:19.786Z,3.25
2022-10-03T11:41:20.218Z,1.00
2022-10-03T11:44:06.428Z,1.25
2022-10-03T11:46:59.581Z,2.33
2022-10-03T11:49:43.174Z,1.75
2022-10-03T11:52:52.858Z,1.25
2022-10-03T11:55:52.394Z,2.00
2022-10-03T11:58:38.666Z,2.25
2022-10-03T12:01:14.385Z,1.25
2022-10-03T12:04:10.860Z,0.75
2022-10-03T12:06:57.568Z,0.25
2022-10-03T12:09:52.162Z,2.33
2022-10-03T12:12:38.563Z,2.00
2022-10-03T12:15:16.158Z,1.50
2022-10-03T12:17:53.854Z,1.25
2022-10-03T12:20:45.082Z,2.00
2022-10-03T12:23:33.519Z,1.00
2022-10-03T12:26:04.971Z,2.00
2022-10-03T12:28:42.238Z,1.75
2022-10-03T12:31:24.052Z,1.25
2022-10-03T12:33:52.433Z,1.00
2022-10-03T12:36:30.436Z,0.50
2022-10-03T12:39:15.920Z,1.00
2022-10-03T12:42:06.725Z,1.75
2022-10-03T12:45:02.194Z,1.00
2022-10-03T12:47:56.521Z,1.50
2022-10-03T12:50:57.469Z,2.75
2022-10-03T12:53:38.961Z,2.00
2022-10-03T12:56:16.142Z,1.00
2022-10-03T12:59:00.703Z,1.75
2022-10-03T13:01:53.664Z,0.75
2022-10-03T13:04:44.364Z,1.67
2022-10-03T13:07:53.392Z,1.75
2022-10-03T13:10:43.276Z,0.75
2022-10-03T13:13:49.871Z,3.00
2022-10-03T13:16:34.202Z,1.00
2022-10-03T13:19:18.968Z,1.00
2022-10-03T13:22:10.695Z,0.75
2022-10-03T13:25:05.341Z,2.00
2022-10-03T13:27:39.633Z,1.75
2022-10-03T13:30:39.423Z,1.00
2022-10-03T13:33:36.682Z,1.00
2022-10-03T13:36:13.293Z,2.75
2022-10-03T13:39:27.193Z,0.00
2022-10-03T13:42:13.776Z,2.00
2022-10-03T13:44:55.913Z,1.00
2022-10-03T13:47:30.330Z,1.00
2022-10-03T13:50:33.523Z,1.33
2022-10-03T13:53:26.891Z,1.50
2022-10-03T13:56:02.025Z,3.25
2022-10-03T13:58:50.790Z,1.25
2022-10-03T14:01:38.941Z,2.75
2022-10-03T14:04:11.223Z,1.33
2022-10-03T14:06:57.192Z,1.75
2022-10-03T14:09:34.613Z,3.00
2022-10-03T14:12:43.926Z,2.75
2022-10-03T14:15:18.733Z,3.75
2022-10-03T14:17:53.581Z,2.75
2022-10-03T14:20:53.625Z,1.75
2022-10-03T14:23:39.111Z,1.75
2022-10-03T14:26:29.772Z,2.67
2022-10-03T14:29:22.023Z,3.00
2022-10-03T14:31:57.863Z,3.00
2022-10-03T14:34:50.942Z,2.25
2022-10-03T14:37:21.981Z,3.00
2022-10-03T14:39:59.176Z,2.75
2022-10-03T14:42:37.783Z,4.00
2022-10-03T14:45:14.576Z,3.33
2022-10-03T14:47:47.968Z,2.75
2022-10-03T14:50:28.423Z,2.67
2022-10-03T14:53:06.663Z,2.75
2022-10-03T14:55:44.327Z,4.00
2022-10-03T14:58:17.554Z,2.50
2022-10-03T15:01:20.985Z,1.75
2022-10-03T15:04:00.666Z,1.75
2022-10-03T15:06:56.614Z,2.00
2022-10-03T15:09:34.168Z,1.75
2022-10-03T15:12:24.286Z,1.75
2022-10-03T15:15:10.919Z,0.50
2022-10-03T15:18:07.113Z,0.50
2022-10-03T15:20:38.618Z,1.00
2022-10-03T15:23:09.970Z,3.00
2022-10-03T15:25:42.402Z,1.75
2022-10-03T15:28:25.006Z,0.00
2022-10-03T15:30:55.637Z,0.75
2022-10-03T15:33:31.412Z,1.50
2022-10-03T15:36:14.974Z,2.50
2022-10-03T15:38:48.922Z,1.25
2022-10-03T15:41:40.839Z,1.67
2022-10-03T15:44:27.207Z,0.67
2022-10-03T15:47:05.376Z,1.75
2022-10-03T15:50:00.996Z,1.00
2022-10-03T15:52:43.002Z,1.50
2022-10-03T15:55:27.258Z,2.00
2022-10-03T15:58:01.362Z,0.67
2022-10-03T16:00:34.651Z,0.00
2022-10-03T16:03:15.082Z,2.50
2022-10-03T16:06:01.113Z,2.00
2022-10-03T16:08:32.969Z,2.25
2022-10-03T16:11:46.710Z,3.00
2022-10-03T16:14:18.164Z,2.25
2022-10-03T16:17:08.773Z,3.00
2022-10-03T16:19:42.676Z,6.00
2022-10-03T16:22:43.931Z,5.00
2022-10-03T16:25:19.422Z,6.75
2022-10-03T16:27:59.152Z,6.00
2022-10-03T16:30:31.118Z,7.75
2022-10-03T16:33:37.873Z,7.00
2022-10-03T16:36:09.615Z,7.50
2022-10-03T16:38:40.775Z,7.25
2022-10-03T16:41:32.384Z,8.25
2022-10-03T16:44:27.087Z,5.75
2022-10-03T16:47:00.070Z,6.50
2022-10-03T16:50:17.907Z,6.25
2022-10-03T16:52:53.420Z,7.33
2022-10-03T16:55:31.872Z,7.00
2022-10-03T16:58:09.157Z,4.75
2022-10-03T17:00:56.463Z,6.00
2022-10-03T17:03:43.851Z,5.33
2022-10-03T17:06:30.483Z,6.00
2022-10-03T17:09:03.972Z,5.00
2022-10-03T17:11:35.772Z,4.25
2022-10-03T17:14:07.131Z,4.33
2022-10-03T17:16:47.997Z,5.75
2022-10-03T17:19:28.681Z,3.00
2022-10-03T17:22:06.138Z,4.33
2022-10-03T17:24:49.906Z,3.00
2022-10-03T17:27:33.386Z,6.00
2022-10-03T17:30:05.083Z,3.00
2022-10-03T17:32:42.677Z,2.00
2022-10-03T17:35:20.761Z,2.00
2022-10-03T17:38:30.554Z,2.25
2022-10-03T17:41:18.885Z,1.50
2022-10-03T17:43:59.960Z,2.25
2022-10-03T17:46:46.090Z,0.25
2022-10-03T17:49:14.436Z,0.50
2022-10-03T17:51:44.621Z,2.00
2022-10-03T17:54:17.457Z,1.67
2022-10-03T17:56:53.434Z,0.25
2022-10-03T17:59:32.196Z,2.00
2022-10-03T18:02:11.588Z,0.75
2022-10-03T18:04:43.164Z,1.75
2022-10-03T18:07:23.443Z,1.33
2022-10-03T18:09:54.885Z,0.75
2022-10-03T18:12:35.899Z,1.00
2022-10-03T18:15:19.125Z,0.75
2022-10-03T18:18:38.542Z,1.00
2022-10-03T18:21:10.669Z,1.00
2022-10-03T18:23:54.736Z,0.25
2022-10-03T18:26:35.493Z,1.00
2022-10-03T18:29:29.571Z,1.00
2022-10-03T18:32:22.932Z,1.00
2022-10-03T18:35:06.228Z,1.00
2022-10-03T18:37:40.794Z,2.00
2022-10-03T18:40:16.790Z,1.00
2022-10-03T18:42:51.129Z,0.75
2022-10-03T18:45:27.841Z,1.25
2022-10-03T18:48:31.545Z,1.75
2022-10-03T18:51:19.901Z,1.00
2022-10-03T18:54:05.272Z,1.67
2022-10-03T18:56:33.968Z,1.00
2022-10-03T18:59:08.759Z,1.67
2022-10-03T19:02:02.262Z,0.75
2022-10-03T19:04:40.366Z,2.00
2022-10-03T19:07:20.024Z,1.25
2022-10-03T19:10:12.029Z,0.75
2022-10-03T19:12:44.424Z,2.00
2022-10-03T19:15:20.430Z,1.00
2022-10-03T19:18:11.386Z,1.00
2022-10-03T19:20:45.157Z,1.00
2022-10-03T19:23:27.595Z,0.67
2022-10-03T19:26:05.283Z,1.00
2022-10-03T19:28:36.833Z,0.75
2022-10-03T19:31:08.469Z,0.00
2022-10-03T19:33:47.656Z,1.00
2022-10-03T19:36:23.857Z,0.75
2022-10-03T19:38:53.514Z,2.00
2022-10-03T19:41:32.280Z,2.00
2022-10-03T19:44:09.619Z,1.00
2022-10-03T19:46:38.103Z,1.00
2022-10-03T19:49:43.857Z,2.00
2022-10-03T19:52:20.052Z,1.00
2022-10-03T19:55:13.499Z,0.25
2022-10-03T19:57:43.049Z,1.75
2022-10-03T20:00:21.081Z,1.25
2022-10-03T20:02:59.925Z,1.00
2022-10-03T20:05:34.203Z,1.00
2022-10-03T20:08:21.766Z,1.00
2022-10-03T20:11:44.220Z,1.00
2022-10-03T20:14:29.701Z,1.33
2022-10-03T20:17:05.253Z,0.00
2022-10-03T20:19:55.139Z,0.67
2022-10-03T20:22:31.437Z,2.00
2022-10-03T20:25:01.110Z,1.00
2022-10-03T20:27:37.274Z,2.00
2022-10-03T20:30:21.787Z,1.50
2022-10-03T20:32:51.598Z,1.00
2022-10-03T20:35:43.777Z,2.00
2022-10-03T20:38:50.249Z,1.00
2022-10-03T20:41:40.036Z,1.75
2022-10-03T20:44:43.020Z,0.75
2022-10-03T20:47:28.095Z,1.25
2022-10-03T20:50:07.881Z,1.00
2022-10-03T20:52:36.522Z,0.75
2022-10-03T20:55:07.036Z,0.75
2022-10-03T20:57:59.804Z,2.00
2022-10-03T21:00:30.234Z,2.00
2022-10-03T21:03:07.521Z,1.50
2022-10-03T21:05:39.394Z,1.50
2022-10-03T21:08:25.280Z,1.67
2022-10-03T21:11:15.768Z,1.50
2022-10-03T21:13:57.255Z,1.00
2022-10-03T21:16:33.214Z,1.00
2022-10-03T21:19:04.213Z,1.50
2022-10-03T21:21:43.490Z,2.00
2022-10-03T21:24:16.642Z,1.75
2022-10-03T21:26:48.437Z,1.25
2022-10-03T21:29:27.879Z,0.75
2022-10-03T21:32:17.912Z,0.00
2022-10-03T21:35:01.089Z,1.00
2022-10-03T21:37:52.714Z,2.00
2022-10-03T21:40:59.699Z,0.50
2022-10-03T21:43:54.090Z,1.50
2022-10-03T21:46:45.657Z,0.00
2022-10-03T21:49:42.559Z,0.67
2022-10-03T21:52:21.896Z,2.00
2022-10-03T21:55:07.067Z,2.00
2022-10-03T21:57:45.687Z,2.00
2022-10-03T22:00:15.319Z,1.75
2022-10-03T22:03:02.418Z,1.00
2022-10-03T22:06:03.695Z,1.00
2022-10-03T22:08:35.837Z,1.00
2022-10-03T22:11:08.998Z,0.25
2022-10-03T22:13:38.330Z,1.25
2022-10-03T22:16:19.289Z,1.00
2022-10-03T22:19:23.518Z,1.00
2022-10-03T22:22:17.920Z,0.25
2022-10-03T22:25:08.720Z,1.00
2022-10-03T22:28:03.364Z,1.50
2022-10-03T22:30:36.451Z,0.33
2022-10-03T22:33:22.595Z,0.25
2022-10-03T22:35:54.873Z,1.00
2022-10-03T22:38:27.099Z,0.00
2022-10-03T22:40:58.182Z,1.25
2022-10-03T22:43:27.789Z,0.25
2022-10-03T22:45:57.892Z,0.25
2022-10-03T22:48:40.831Z,1.00
2022-10-03T22:51:12.589Z,2.00
2022-10-03T22:53:46.667Z,0.25
2022-10-03T22:56:38.729Z,1.00
2022-10-03T22:59:11.114Z,1.00
2022-10-03T23:01:45.725Z,1.50
2022-10-03T23:04:38.073Z,2.00
2022-10-03T23:07:24.646Z,0.25
2022-10-03T23:10:16.716Z,1.00
2022-10-03T23:12:52.465Z,1.00
2022-10-03T23:15:22.897Z,1.67
2022-10-03T23:18:15.849Z,0.25
2022-10-03T23:21:02.456Z,0.00
2022-10-03T23:23:51.217Z,0.67
2022-10-03T23:26:19.508Z,0.50
2022-10-03T23:29:00.473Z,1.00
2022-10-03T23:31:59.777Z,1.00
2022-10-03T23:34:40.336Z,1.00
2022-10-03T23:37:14.557Z,0.00
2022-10-03T23:39:55.548Z,0.00
2022-10-03T23:42:41.623Z,0.25
2022-10-03T23:45:15.633Z,0.75
2022-10-03T23:48:02.955Z,0.75
2022-10-03T23:50:52.318Z,0.00
2022-10-03T23:53:39.249Z,0.00
2022-10-03T23:56:23.802Z,0.25
2022-10-03T23:59:08.564Z,0.00
